KPZQ METAR Reports


Rogers City, Presque Isle County Airport, MI, United States (KPZQ) 45-24-25N 083-48-46W
Apr 20, 2019 - 12:56 PM EDT / 2019.04.20 1656 UTC
Wind: from the NNW (340 degrees) at 8 MPH (7 KT):0
Visibility: 10 mile(s):0
Sky conditions: clear
Temperature: 44.4 F (6.9 C)
Dew Point: 32.0 F (0.0 C)
Relative Humidity: 61%
Pressure (altimeter): 29.9 in. Hg (1012 hPa)
ob: KPZQ 201656Z AUTO 34007KT 10SM CLR 07/00 A2990 RMK AO2 T00690000
cycle: 17

 

Rogers City METAR Meteogram

Weather Chart

Nearby METAR Reports

KPZQ - Rogers City, Michigan, USA
Distance from station: SSW 1mi, 2km
Updated: Sat, 20-Apr-2019 12:56pm EDT
Clear
Clear
 Wind from NNW
Wind: NNW 8 mph , 13 km/h
Temperature: 45°F , 7°C
Wind Chill: 41°F , 5°C
Dew Point: 32°F , 0°C
Humidity: 61%
Barometer: 29.90 inHg , 1012.5 hPa
Clouds: Clear
Visibility: 10 miles , 16 km
2019/04/20 16:56 KPZQ 201656Z AUTO 34007KT 10SM CLR 07/00 A2990 RMK AO2 T00690000
KAPN - Alpena, Michigan, USA
Distance from station: SSE 27mi, 43km
Updated: Sat, 20-Apr-2019 12:54pm EDT
Clear
Clear
 Wind from N
Wind: N 14 mph , 22 km/h
Temperature: 54°F , 12°C
Dew Point: 34°F , 1°C
Humidity: 47%
Barometer: 29.85 inHg , 1010.8 hPa
Clouds: Clear
Visibility: 10 miles , 16 km
2019/04/20 16:54 KAPN 201654Z AUTO 35012KT 10SM CLR 12/01 A2985 RMK AO2 SLP113 T01170011
 
KSLH - Cheboygan, Michigan, USA
Distance from station: WNW 38mi, 61km
Updated: Sat, 20-Apr-2019 12:56pm EDT
Clear
Clear
 Wind from ENE
Wind: ENE 10 mph , 17 km/h
Temperature: 48°F , 9°C
Wind Chill: 44°F , 7°C
Dew Point: 30°F , -1°C
Humidity: 50%
Barometer: 29.88 inHg , 1011.9 hPa
Clouds: Clear
Visibility: 10 miles , 16 km
2019/04/20 16:56 KSLH 201656Z AUTO 06009KT 10SM CLR 09/M01 A2988 RMK AO2 T00891008
KDRM - Drummond Is, Michigan, USA
Distance from station: N 40mi, 65km
Updated: Sat, 20-Apr-2019 12:55pm EDT
Clear
Clear
 Wind from NNE
Wind: NNE 3 mph , 6 km/h
Temperature: 55°F , 13°C
Dew Point: 23°F , -5°C
Humidity: 28%
Barometer: 29.88 inHg , 1011.9 hPa
Clouds: Clear
Visibility: 10 miles , 16 km
2019/04/20 16:55 KDRM 201655Z AUTO 02003KT 10SM CLR 13/M05 A2988 RMK AO2 T01281049
 
KPLN - Pellston, Michigan, USA
Distance from station: WNW 49mi, 79km
Updated: Sat, 20-Apr-2019 12:54pm EDT
Clear
Clear
 Wind from ENE
Wind: ENE 13 mph , 20 km/h
Temperature: 55°F , 13°C
Dew Point: 27°F , -3°C
Humidity: 33%
Barometer: 29.88 inHg , 1011.9 hPa
Clouds: Clear
Visibility: 10 miles , 16 km
2019/04/20 16:54 KPLN 201654Z AUTO 07011KT 10SM CLR 13/M03 A2988 RMK AO2 SLP125 T01281028
KMCD - Mackinac Island, Michigan, USA
Distance from station: NW 50mi, 80km
Updated: Sat, 20-Apr-2019 12:56pm EDT
Clear
Clear
 Wind from E
Wind: E 10 mph , 17 km/h
Temperature: 50°F , 10°C
Wind Chill: 46°F , 8°C
Dew Point: 23°F , -5°C
Humidity: 35%
Barometer: 29.89 inHg , 1012.2 hPa
Clouds: Clear
Visibility: 10 miles , 16 km
2019/04/20 16:56 KMCD 201656Z AUTO 10009KT 10SM CLR 10/M05 A2989 RMK AO2 T00961050